Share

Anvik, AK

2:50 PM AKDT on April 24, 2014 (GMT -0800)
Anvik (PANV) Elev 308 ft | 62.65 °N, 160.19 °W | Change Station

Current weather conditions updated 14 minutes ago

Overcast
Overcast
46 °F
Feels Like 42 °F
N
8
Wind Variable Wind from SE
Sunrise 6:43 AM
Sunset 10:37 PM
Moon Waning Crescent

Today is forecast to be nearly the same temperature as yesterday. Showers.

Pressure 29.53 in
Visibility -9999.0 miles
Clouds Few 4800 ft
Mostly Cloudy 6000 ft
Overcast 7000 ft
Windchill 42 °F
Dew Point 32 °F
Humidity 57%
Rainfall 0.00 in
Snow Depth Not available.
UV 2 out of 16
Pollen Not available.
Air Quality Not available.
Flu Activity Sporadic
METAR PANV 242236Z 14007KT FEW048 BKN060 OVC070 08/00 A2953 RMK AO1

More Conditions Fewer Conditions

Pressure 29.53 in
Visibility -9999.0 miles
Clouds Few 4800 ft
Mostly Cloudy 6000 ft
Overcast 7000 ft
Windchill 42 °F
Dew Point 32 °F
Humidity 57%
Rainfall 0.00 in
Snow Depth Not available.
UV 2 out of 16
Pollen Not available.
Air Quality Not available.
Flu Activity Sporadic
METAR PANV 242236Z 14007KT FEW048 BKN060 OVC070 08/00 A2953 RMK AO1

More Conditions Fewer Conditions

10-Day Weather Forecast

Almanac

Astronomy

Apr. 24, 2014 Rise Set
Actual Time 6:43 AM AKDT 10:37 PM AKDT
Civil Twilight 5:46 AM AKDT 11:36 PM AKDT
Nautical Twilight 4:11 AM AKDT 1:14 AM AKDT
Astronomical Twilight Sun does not rise Sun does not rise
Moon 5:37 AM AKDT 4:38 PM AKDT
Length of Visible Light 17h 50m
Length of Day
15h 53m
Tomorrow will be 6m 14s longer.
Waning Crescent, 22% of the Moon is Illuminated
Today
Waning Crescent
Apr 29
New
May 6
First Quarter
May 14
Full
May 21
Last Quarter

Today's Extremes

State Highs State Lows

Community

  • Jone Runs Falls
    Jone Runs Falls
  • Easter in Shenandoah National Park
    Easter in Shenandoah National Park
  • Sunset at Apalachicola Bay, Florida
    Sunset at Apalachicola Bay, Florida
  • Clouds mov'n in
    Clouds mov'n in
  • Stacked
    Stacked

WunderPhotos

Upload Photos

1,704,732 photos uploaded!

Nearby

Snow Depth

Station Depth Elevation
Rocky Point 1 in 500 ft
Pargon Creek 1 in 300 ft
Susitna Valley High 12 in 375 ft
Point Mackenzie 2 in 200 ft
Mcneil Canyon 3 in 1320 ft

Coastal Water Temperatures

Place Temperature
No Stations Reporting

Earthquake Activity

City Distance Mag. Time & Date
No recent earthquake activity has been reported nearby.
Minimum magnitude displayed is 2.5.

Nearby Weather Stations

There are no personal weather stations in this area.

What do you think?

We're not finished. Please let us know what you like, what you don't like, and what you are still missing.